sensor_id;sensor_type;location;lat;lon;timestamp;temperature;humidity
11320;DHT22;5715;48.234;14.320;2023-12-20T00:01:19;-1.40;99.90
11320;DHT22;5715;48.234;14.320;2023-12-20T00:04:07;-1.40;99.90
11320;DHT22;5715;48.234;14.320;2023-12-20T00:06:54;-1.40;99.90
11320;DHT22;5715;48.234;14.320;2023-12-20T00:09:42;-1.40;99.90
11320;DHT22;5715;48.234;14.320;2023-12-20T00:12:30;-1.40;99.90
11320;DHT22;5715;48.234;14.320;2023-12-20T00:15:17;-1.40;99.90
11320;DHT22;5715;48.234;14.320;2023-12-20T00:18:05;-1.40;99.90
11320;DHT22;5715;48.234;14.320;2023-12-20T00:20:53;-1.40;99.90
11320;DHT22;5715;48.234;14.320;2023-12-20T00:23:40;-1.40;99.90
11320;DHT22;5715;48.234;14.320;2023-12-20T00:26:28;-1.40;99.90
11320;DHT22;5715;48.234;14.320;2023-12-20T00:29:16;-1.40;99.90
11320;DHT22;5715;48.234;14.320;2023-12-20T00:32:03;-1.40;99.90
11320;DHT22;5715;48.234;14.320;2023-12-20T00:34:51;-1.30;99.90
11320;DHT22;5715;48.234;14.320;2023-12-20T00:37:39;-1.30;99.90
11320;DHT22;5715;48.234;14.320;2023-12-20T00:40:27;-1.30;99.90
11320;DHT22;5715;48.234;14.320;2023-12-20T00:43:14;-1.20;99.90
11320;DHT22;5715;48.234;14.320;2023-12-20T00:46:02;-1.20;99.90
11320;DHT22;5715;48.234;14.320;2023-12-20T00:48:50;-1.20;99.90
11320;DHT22;5715;48.234;14.320;2023-12-20T00:51:37;-1.10;99.90
11320;DHT22;5715;48.234;14.320;2023-12-20T00:54:25;-1.10;99.90
11320;DHT22;5715;48.234;14.320;2023-12-20T00:57:13;-1.10;99.90
11320;DHT22;5715;48.234;14.320;2023-12-20T01:00:00;-1.00;99.90
11320;DHT22;5715;48.234;14.320;2023-12-20T01:02:48;-1.00;99.90
11320;DHT22;5715;48.234;14.320;2023-12-20T01:05:38;-1.00;99.90
11320;DHT22;5715;48.234;14.320;2023-12-20T01:08:26;-1.00;99.90
11320;DHT22;5715;48.234;14.320;2023-12-20T01:11:13;-1.00;99.90
11320;DHT22;5715;48.234;14.320;2023-12-20T01:14:01;-0.90;99.90
11320;DHT22;5715;48.234;14.320;2023-12-20T01:16:48;-0.90;99.90
11320;DHT22;5715;48.234;14.320;2023-12-20T01:19:36;-0.90;99.90
11320;DHT22;5715;48.234;14.320;2023-12-20T01:22:24;-0.90;99.90
11320;DHT22;5715;48.234;14.320;2023-12-20T01:25:12;-0.80;99.90
11320;DHT22;5715;48.234;14.320;2023-12-20T01:28:00;-1.00;99.90
11320;DHT22;5715;48.234;14.320;2023-12-20T01:30:47;-1.00;99.90
11320;DHT22;5715;48.234;14.320;2023-12-20T01:33:35;-1.00;99.90
11320;DHT22;5715;48.234;14.320;2023-12-20T01:36:23;-1.00;99.90
11320;DHT22;5715;48.234;14.320;2023-12-20T01:39:10;-1.00;99.90
11320;DHT22;5715;48.234;14.320;2023-12-20T01:42:11;-1.00;99.90
11320;DHT22;5715;48.234;14.320;2023-12-20T01:44:58;-1.00;99.90
11320;DHT22;5715;48.234;14.320;2023-12-20T01:47:46;-1.00;99.90
11320;DHT22;5715;48.234;14.320;2023-12-20T01:50:36;-1.00;99.90
11320;DHT22;5715;48.234;14.320;2023-12-20T01:53:25;-1.00;99.90
11320;DHT22;5715;48.234;14.320;2023-12-20T01:56:15;-1.00;99.90
11320;DHT22;5715;48.234;14.320;2023-12-20T01:59:03;-0.90;99.90
11320;DHT22;5715;48.234;14.320;2023-12-20T02:01:52;-0.80;99.90
11320;DHT22;5715;48.234;14.320;2023-12-20T02:04:40;-0.80;99.90
11320;DHT22;5715;48.234;14.320;2023-12-20T02:07:29;-0.80;99.90
11320;DHT22;5715;48.234;14.320;2023-12-20T02:10:18;-0.70;99.90
11320;DHT22;5715;48.234;14.320;2023-12-20T02:13:06;-0.60;99.90
11320;DHT22;5715;48.234;14.320;2023-12-20T02:15:55;-0.50;99.90
11320;DHT22;5715;48.234;14.320;2023-12-20T02:18:43;-0.50;99.90
11320;DHT22;5715;48.234;14.320;2023-12-20T02:21:32;-0.40;99.90
11320;DHT22;5715;48.234;14.320;2023-12-20T02:24:21;-0.30;99.90
11320;DHT22;5715;48.234;14.320;2023-12-20T02:27:08;-0.20;99.90
11320;DHT22;5715;48.234;14.320;2023-12-20T02:29:56;-0.10;99.90
11320;DHT22;5715;48.234;14.320;2023-12-20T02:32:44;-0.10;99.90
11320;DHT22;5715;48.234;14.320;2023-12-20T02:35:31;0.00;99.90
11320;DHT22;5715;48.234;14.320;2023-12-20T02:38:19;0.10;99.90
11320;DHT22;5715;48.234;14.320;2023-12-20T02:41:07;0.10;99.90
11320;DHT22;5715;48.234;14.320;2023-12-20T02:43:55;0.20;99.90
11320;DHT22;5715;48.234;14.320;2023-12-20T02:46:42;0.20;99.90
11320;DHT22;5715;48.234;14.320;2023-12-20T02:49:30;0.30;99.90
11320;DHT22;5715;48.234;14.320;2023-12-20T02:52:18;0.30;99.90
11320;DHT22;5715;48.234;14.320;2023-12-20T02:55:05;0.30;99.90
11320;DHT22;5715;48.234;14.320;2023-12-20T02:57:53;0.30;99.90
11320;DHT22;5715;48.234;14.320;2023-12-20T03:00:41;0.40;99.90
11320;DHT22;5715;48.234;14.320;2023-12-20T03:03:29;0.50;99.90
11320;DHT22;5715;48.234;14.320;2023-12-20T03:06:18;0.50;99.90
11320;DHT22;5715;48.234;14.320;2023-12-20T03:09:06;0.60;99.90
11320;DHT22;5715;48.234;14.320;2023-12-20T03:11:54;0.60;99.90
11320;DHT22;5715;48.234;14.320;2023-12-20T03:14:43;0.60;99.90
11320;DHT22;5715;48.234;14.320;2023-12-20T03:17:31;0.70;99.90
11320;DHT22;5715;48.234;14.320;2023-12-20T03:20:19;0.70;99.90
11320;DHT22;5715;48.234;14.320;2023-12-20T03:23:06;0.70;99.90
11320;DHT22;5715;48.234;14.320;2023-12-20T03:25:54;0.70;99.90
11320;DHT22;5715;48.234;14.320;2023-12-20T03:28:41;0.80;99.90
11320;DHT22;5715;48.234;14.320;2023-12-20T03:31:29;0.80;99.90
11320;DHT22;5715;48.234;14.320;2023-12-20T03:34:16;0.80;99.90
11320;DHT22;5715;48.234;14.320;2023-12-20T03:37:04;0.80;99.90
11320;DHT22;5715;48.234;14.320;2023-12-20T03:39:52;0.70;99.90
11320;DHT22;5715;48.234;14.320;2023-12-20T03:42:39;0.70;99.90
11320;DHT22;5715;48.234;14.320;2023-12-20T03:45:27;0.70;99.90
11320;DHT22;5715;48.234;14.320;2023-12-20T03:48:15;0.70;99.90
11320;DHT22;5715;48.234;14.320;2023-12-20T03:51:02;0.70;99.90
11320;DHT22;5715;48.234;14.320;2023-12-20T03:53:50;0.70;99.90
11320;DHT22;5715;48.234;14.320;2023-12-20T03:56:37;0.70;99.90
11320;DHT22;5715;48.234;14.320;2023-12-20T03:59:25;0.80;99.90
11320;DHT22;5715;48.234;14.320;2023-12-20T04:02:13;0.80;99.90
11320;DHT22;5715;48.234;14.320;2023-12-20T04:05:00;0.70;99.90
11320;DHT22;5715;48.234;14.320;2023-12-20T04:07:48;0.80;99.90
11320;DHT22;5715;48.234;14.320;2023-12-20T04:10:37;0.90;99.90
11320;DHT22;5715;48.234;14.320;2023-12-20T04:13:25;0.90;99.90
11320;DHT22;5715;48.234;14.320;2023-12-20T04:16:13;0.90;99.90
11320;DHT22;5715;48.234;14.320;2023-12-20T04:19:00;1.00;99.90
11320;DHT22;5715;48.234;14.320;2023-12-20T04:21:48;0.90;99.90
11320;DHT22;5715;48.234;14.320;2023-12-20T04:24:36;0.90;99.90
11320;DHT22;5715;48.234;14.320;2023-12-20T04:27:23;0.90;99.90
11320;DHT22;5715;48.234;14.320;2023-12-20T04:30:11;0.90;99.90
11320;DHT22;5715;48.234;14.320;2023-12-20T04:32:59;0.90;99.90
11320;DHT22;5715;48.234;14.320;2023-12-20T04:35:47;1.00;99.90
11320;DHT22;5715;48.234;14.320;2023-12-20T04:38:34;0.90;99.90
11320;DHT22;5715;48.234;14.320;2023-12-20T04:41:22;1.00;99.90
11320;DHT22;5715;48.234;14.320;2023-12-20T04:44:10;1.00;99.90
11320;DHT22;5715;48.234;14.320;2023-12-20T04:46:57;1.00;99.90
11320;DHT22;5715;48.234;14.320;2023-12-20T04:49:45;0.90;99.90
11320;DHT22;5715;48.234;14.320;2023-12-20T04:52:33;1.00;99.90
11320;DHT22;5715;48.234;14.320;2023-12-20T04:55:21;1.00;99.90
11320;DHT22;5715;48.234;14.320;2023-12-20T04:58:08;1.00;99.90
11320;DHT22;5715;48.234;14.320;2023-12-20T05:00:56;0.90;99.90
11320;DHT22;5715;48.234;14.320;2023-12-20T05:03:44;0.90;99.90
11320;DHT22;5715;48.234;14.320;2023-12-20T05:06:31;1.00;99.90
11320;DHT22;5715;48.234;14.320;2023-12-20T05:09:19;1.00;99.90
11320;DHT22;5715;48.234;14.320;2023-12-20T05:12:07;1.00;99.90
11320;DHT22;5715;48.234;14.320;2023-12-20T05:14:54;1.00;99.90
11320;DHT22;5715;48.234;14.320;2023-12-20T05:17:42;1.00;99.90
11320;DHT22;5715;48.234;14.320;2023-12-20T05:20:30;1.00;99.90
11320;DHT22;5715;48.234;14.320;2023-12-20T05:23:18;1.10;99.90
11320;DHT22;5715;48.234;14.320;2023-12-20T05:26:07;1.10;99.90
11320;DHT22;5715;48.234;14.320;2023-12-20T05:28:55;1.10;99.90
11320;DHT22;5715;48.234;14.320;2023-12-20T05:31:42;1.00;99.90
11320;DHT22;5715;48.234;14.320;2023-12-20T05:34:30;1.10;99.90
11320;DHT22;5715;48.234;14.320;2023-12-20T05:37:19;1.10;99.90
11320;DHT22;5715;48.234;14.320;2023-12-20T05:40:07;1.10;99.90
11320;DHT22;5715;48.234;14.320;2023-12-20T05:42:58;1.20;99.90
11320;DHT22;5715;48.234;14.320;2023-12-20T05:45:45;1.30;99.90
11320;DHT22;5715;48.234;14.320;2023-12-20T05:48:33;1.30;99.90
11320;DHT22;5715;48.234;14.320;2023-12-20T05:51:21;1.30;99.90
11320;DHT22;5715;48.234;14.320;2023-12-20T05:54:09;1.30;99.90
11320;DHT22;5715;48.234;14.320;2023-12-20T05:56:57;1.40;99.90
11320;DHT22;5715;48.234;14.320;2023-12-20T05:59:44;1.50;99.90
11320;DHT22;5715;48.234;14.320;2023-12-20T06:02:32;1.50;99.90
11320;DHT22;5715;48.234;14.320;2023-12-20T06:05:19;1.50;99.90
11320;DHT22;5715;48.234;14.320;2023-12-20T06:08:07;1.50;99.90
11320;DHT22;5715;48.234;14.320;2023-12-20T06:10:55;1.40;99.90
11320;DHT22;5715;48.234;14.320;2023-12-20T06:13:42;1.40;99.90
11320;DHT22;5715;48.234;14.320;2023-12-20T06:16:30;1.30;99.90
11320;DHT22;5715;48.234;14.320;2023-12-20T06:19:18;1.40;99.90
11320;DHT22;5715;48.234;14.320;2023-12-20T06:22:06;1.40;99.90
11320;DHT22;5715;48.234;14.320;2023-12-20T06:24:53;1.40;99.90
11320;DHT22;5715;48.234;14.320;2023-12-20T06:27:41;1.40;99.90
11320;DHT22;5715;48.234;14.320;2023-12-20T06:30:29;1.20;99.90
11320;DHT22;5715;48.234;14.320;2023-12-20T06:33:16;1.20;99.90
11320;DHT22;5715;48.234;14.320;2023-12-20T06:36:06;1.20;99.90
11320;DHT22;5715;48.234;14.320;2023-12-20T06:38:53;1.20;99.90
11320;DHT22;5715;48.234;14.320;2023-12-20T06:41:41;1.30;99.90
11320;DHT22;5715;48.234;14.320;2023-12-20T06:44:30;1.40;99.90
11320;DHT22;5715;48.234;14.320;2023-12-20T06:47:18;1.40;99.90
11320;DHT22;5715;48.234;14.320;2023-12-20T06:50:06;1.50;99.90
11320;DHT22;5715;48.234;14.320;2023-12-20T06:52:55;1.60;99.90
11320;DHT22;5715;48.234;14.320;2023-12-20T06:55:43;1.60;99.90
11320;DHT22;5715;48.234;14.320;2023-12-20T06:58:31;1.50;99.90
11320;DHT22;5715;48.234;14.320;2023-12-20T07:01:19;1.60;99.90
11320;DHT22;5715;48.234;14.320;2023-12-20T07:04:06;1.60;99.90
11320;DHT22;5715;48.234;14.320;2023-12-20T07:06:54;1.60;99.90
11320;DHT22;5715;48.234;14.320;2023-12-20T07:09:45;1.70;99.90
11320;DHT22;5715;48.234;14.320;2023-12-20T07:12:32;1.80;99.90
11320;DHT22;5715;48.234;14.320;2023-12-20T07:15:20;1.90;99.90
11320;DHT22;5715;48.234;14.320;2023-12-20T07:18:09;1.90;99.90
11320;DHT22;5715;48.234;14.320;2023-12-20T07:20:57;2.00;99.90
11320;DHT22;5715;48.234;14.320;2023-12-20T07:23:44;2.00;99.90
11320;DHT22;5715;48.234;14.320;2023-12-20T07:26:32;2.10;99.90
11320;DHT22;5715;48.234;14.320;2023-12-20T07:29:21;2.20;99.90
11320;DHT22;5715;48.234;14.320;2023-12-20T07:32:08;2.20;99.90
11320;DHT22;5715;48.234;14.320;2023-12-20T07:34:56;2.20;99.90
11320;DHT22;5715;48.234;14.320;2023-12-20T07:37:44;2.30;99.90
11320;DHT22;5715;48.234;14.320;2023-12-20T07:40:32;2.30;99.90
11320;DHT22;5715;48.234;14.320;2023-12-20T07:43:19;2.50;99.90
11320;DHT22;5715;48.234;14.320;2023-12-20T07:46:08;2.70;99.90
11320;DHT22;5715;48.234;14.320;2023-12-20T07:48:56;2.90;99.90
11320;DHT22;5715;48.234;14.320;2023-12-20T07:51:44;3.00;99.90
11320;DHT22;5715;48.234;14.320;2023-12-20T07:54:31;3.10;99.90
11320;DHT22;5715;48.234;14.320;2023-12-20T07:57:19;3.20;99.90
11320;DHT22;5715;48.234;14.320;2023-12-20T08:00:07;3.20;99.90
11320;DHT22;5715;48.234;14.320;2023-12-20T08:02:55;3.20;99.90
11320;DHT22;5715;48.234;14.320;2023-12-20T08:05:42;3.30;99.90
11320;DHT22;5715;48.234;14.320;2023-12-20T08:08:30;3.40;99.90
11320;DHT22;5715;48.234;14.320;2023-12-20T08:11:18;3.40;99.90
11320;DHT22;5715;48.234;14.320;2023-12-20T08:14:05;3.40;99.90
11320;DHT22;5715;48.234;14.320;2023-12-20T08:16:53;3.50;99.90
11320;DHT22;5715;48.234;14.320;2023-12-20T08:19:41;3.50;99.90
11320;DHT22;5715;48.234;14.320;2023-12-20T08:22:28;3.50;99.90
11320;DHT22;5715;48.234;14.320;2023-12-20T08:25:16;3.50;99.90
11320;DHT22;5715;48.234;14.320;2023-12-20T08:28:04;3.60;99.90
11320;DHT22;5715;48.234;14.320;2023-12-20T08:30:52;3.60;99.90
11320;DHT22;5715;48.234;14.320;2023-12-20T08:33:41;3.60;99.90
11320;DHT22;5715;48.234;14.320;2023-12-20T08:36:29;3.70;99.90
11320;DHT22;5715;48.234;14.320;2023-12-20T08:39:17;3.70;99.90
11320;DHT22;5715;48.234;14.320;2023-12-20T08:42:04;3.70;99.90
11320;DHT22;5715;48.234;14.320;2023-12-20T08:44:52;3.80;99.90
11320;DHT22;5715;48.234;14.320;2023-12-20T08:47:40;3.80;99.90
11320;DHT22;5715;48.234;14.320;2023-12-20T08:50:29;3.80;99.90
11320;DHT22;5715;48.234;14.320;2023-12-20T08:53:17;3.90;99.90
11320;DHT22;5715;48.234;14.320;2023-12-20T08:56:05;4.00;99.90
11320;DHT22;5715;48.234;14.320;2023-12-20T08:58:53;4.00;99.90
11320;DHT22;5715;48.234;14.320;2023-12-20T09:01:40;4.00;99.90
11320;DHT22;5715;48.234;14.320;2023-12-20T09:04:28;4.00;99.90
11320;DHT22;5715;48.234;14.320;2023-12-20T09:07:26;4.10;99.90
11320;DHT22;5715;48.234;14.320;2023-12-20T09:10:14;4.20;99.90
11320;DHT22;5715;48.234;14.320;2023-12-20T09:13:05;4.20;99.90
11320;DHT22;5715;48.234;14.320;2023-12-20T09:15:55;4.20;99.90
11320;DHT22;5715;48.234;14.320;2023-12-20T09:18:43;4.30;99.90
11320;DHT22;5715;48.234;14.320;2023-12-20T09:21:31;4.40;99.90
11320;DHT22;5715;48.234;14.320;2023-12-20T09:24:19;4.50;99.90
11320;DHT22;5715;48.234;14.320;2023-12-20T09:27:06;4.50;99.90
11320;DHT22;5715;48.234;14.320;2023-12-20T09:29:54;4.60;99.90
11320;DHT22;5715;48.234;14.320;2023-12-20T09:32:42;4.70;99.90
11320;DHT22;5715;48.234;14.320;2023-12-20T09:35:33;4.70;99.90
11320;DHT22;5715;48.234;14.320;2023-12-20T09:38:21;4.80;99.90
11320;DHT22;5715;48.234;14.320;2023-12-20T09:41:09;4.80;99.90
11320;DHT22;5715;48.234;14.320;2023-12-20T09:44:02;4.90;99.90
11320;DHT22;5715;48.234;14.320;2023-12-20T09:46:50;4.90;99.90
11320;DHT22;5715;48.234;14.320;2023-12-20T09:49:40;5.00;99.90
11320;DHT22;5715;48.234;14.320;2023-12-20T09:52:30;5.00;99.90
11320;DHT22;5715;48.234;14.320;2023-12-20T09:55:20;5.10;99.90
11320;DHT22;5715;48.234;14.320;2023-12-20T09:58:09;5.20;99.90
11320;DHT22;5715;48.234;14.320;2023-12-20T10:00:57;5.20;99.90
11320;DHT22;5715;48.234;14.320;2023-12-20T10:03:45;5.30;99.90
11320;DHT22;5715;48.234;14.320;2023-12-20T10:06:33;5.30;99.90
11320;DHT22;5715;48.234;14.320;2023-12-20T10:09:21;5.40;99.90
11320;DHT22;5715;48.234;14.320;2023-12-20T10:12:08;5.40;99.90
11320;DHT22;5715;48.234;14.320;2023-12-20T10:14:57;5.50;99.90
11320;DHT22;5715;48.234;14.320;2023-12-20T10:17:49;5.60;99.90
11320;DHT22;5715;48.234;14.320;2023-12-20T10:20:36;5.60;99.90
11320;DHT22;5715;48.234;14.320;2023-12-20T10:23:24;5.70;99.90
11320;DHT22;5715;48.234;14.320;2023-12-20T10:26:23;5.80;99.90
11320;DHT22;5715;48.234;14.320;2023-12-20T10:29:12;5.80;99.90
11320;DHT22;5715;48.234;14.320;2023-12-20T10:35:14;5.90;99.90
11320;DHT22;5715;48.234;14.320;2023-12-20T10:38:04;5.90;99.90
11320;DHT22;5715;48.234;14.320;2023-12-20T10:40:57;5.90;99.90
11320;DHT22;5715;48.234;14.320;2023-12-20T10:43:47;5.90;99.90
11320;DHT22;5715;48.234;14.320;2023-12-20T10:46:34;5.90;99.90
11320;DHT22;5715;48.234;14.320;2023-12-20T10:49:23;6.00;99.90
11320;DHT22;5715;48.234;14.320;2023-12-20T10:52:13;6.00;99.90
11320;DHT22;5715;48.234;14.320;2023-12-20T10:55:01;6.00;99.90
11320;DHT22;5715;48.234;14.320;2023-12-20T10:57:54;6.00;99.90
11320;DHT22;5715;48.234;14.320;2023-12-20T11:01:00;5.90;99.90
11320;DHT22;5715;48.234;14.320;2023-12-20T11:03:53;5.90;99.90
11320;DHT22;5715;48.234;14.320;2023-12-20T11:07:03;5.90;99.90
11320;DHT22;5715;48.234;14.320;2023-12-20T11:10:19;5.80;99.90
11320;DHT22;5715;48.234;14.320;2023-12-20T11:13:30;5.80;99.90
11320;DHT22;5715;48.234;14.320;2023-12-20T11:16:21;5.80;99.90
11320;DHT22;5715;48.234;14.320;2023-12-20T11:19:12;5.80;99.90
11320;DHT22;5715;48.234;14.320;2023-12-20T11:22:04;5.80;99.90
11320;DHT22;5715;48.234;14.320;2023-12-20T11:24:53;5.80;99.90
11320;DHT22;5715;48.234;14.320;2023-12-20T11:27:43;5.80;99.90
11320;DHT22;5715;48.234;14.320;2023-12-20T11:33:44;5.80;99.90
11320;DHT22;5715;48.234;14.320;2023-12-20T11:36:35;5.80;99.90
11320;DHT22;5715;48.234;14.320;2023-12-20T11:39:23;5.80;99.90
11320;DHT22;5715;48.234;14.320;2023-12-20T11:42:12;5.80;99.90
11320;DHT22;5715;48.234;14.320;2023-12-20T11:45:02;5.80;99.90
11320;DHT22;5715;48.234;14.320;2023-12-20T11:47:51;5.90;99.90
11320;DHT22;5715;48.234;14.320;2023-12-20T11:50:41;5.90;99.90
11320;DHT22;5715;48.234;14.320;2023-12-20T11:53:29;5.90;99.90
11320;DHT22;5715;48.234;14.320;2023-12-20T11:56:19;5.90;99.90
11320;DHT22;5715;48.234;14.320;2023-12-20T11:59:08;5.90;99.90
11320;DHT22;5715;48.234;14.320;2023-12-20T12:02:11;5.90;99.90
11320;DHT22;5715;48.234;14.320;2023-12-20T12:04:59;5.90;99.90
11320;DHT22;5715;48.234;14.320;2023-12-20T12:07:47;5.90;99.90
11320;DHT22;5715;48.234;14.320;2023-12-20T12:10:36;5.90;99.90
11320;DHT22;5715;48.234;14.320;2023-12-20T12:13:23;5.90;99.90
11320;DHT22;5715;48.234;14.320;2023-12-20T12:16:19;5.90;99.90
11320;DHT22;5715;48.234;14.320;2023-12-20T12:19:07;6.00;99.90
11320;DHT22;5715;48.234;14.320;2023-12-20T12:22:08;6.00;99.90
11320;DHT22;5715;48.234;14.320;2023-12-20T12:25:13;6.00;99.90
11320;DHT22;5715;48.234;14.320;2023-12-20T12:28:01;6.00;99.90
11320;DHT22;5715;48.234;14.320;2023-12-20T12:30:58;6.00;99.90
11320;DHT22;5715;48.234;14.320;2023-12-20T12:33:47;6.00;99.90
11320;DHT22;5715;48.234;14.320;2023-12-20T12:36:35;5.90;99.90
11320;DHT22;5715;48.234;14.320;2023-12-20T12:39:24;5.90;99.90
11320;DHT22;5715;48.234;14.320;2023-12-20T12:42:14;5.90;99.90
11320;DHT22;5715;48.234;14.320;2023-12-20T12:45:01;5.90;99.90
11320;DHT22;5715;48.234;14.320;2023-12-20T12:47:49;5.90;99.90
11320;DHT22;5715;48.234;14.320;2023-12-20T12:50:37;5.90;99.90
11320;DHT22;5715;48.234;14.320;2023-12-20T12:53:25;5.90;99.90
11320;DHT22;5715;48.234;14.320;2023-12-20T12:56:14;5.90;99.90
11320;DHT22;5715;48.234;14.320;2023-12-20T12:59:02;5.90;99.90
11320;DHT22;5715;48.234;14.320;2023-12-20T13:01:50;6.00;99.90
11320;DHT22;5715;48.234;14.320;2023-12-20T13:04:38;5.90;99.90
11320;DHT22;5715;48.234;14.320;2023-12-20T13:07:26;5.90;99.90
11320;DHT22;5715;48.234;14.320;2023-12-20T13:10:14;5.90;99.90
11320;DHT22;5715;48.234;14.320;2023-12-20T13:13:04;6.00;99.90
11320;DHT22;5715;48.234;14.320;2023-12-20T13:15:51;6.00;99.90
11320;DHT22;5715;48.234;14.320;2023-12-20T13:18:42;6.00;99.90
11320;DHT22;5715;48.234;14.320;2023-12-20T13:21:30;6.00;99.90
11320;DHT22;5715;48.234;14.320;2023-12-20T13:24:18;6.10;99.90
11320;DHT22;5715;48.234;14.320;2023-12-20T13:27:06;6.10;99.90
11320;DHT22;5715;48.234;14.320;2023-12-20T13:29:53;6.20;99.90
11320;DHT22;5715;48.234;14.320;2023-12-20T13:32:41;6.20;99.90
11320;DHT22;5715;48.234;14.320;2023-12-20T13:35:29;6.20;99.90
11320;DHT22;5715;48.234;14.320;2023-12-20T13:38:17;6.20;99.90
11320;DHT22;5715;48.234;14.320;2023-12-20T13:41:04;6.20;99.90
11320;DHT22;5715;48.234;14.320;2023-12-20T13:43:52;6.20;99.90
11320;DHT22;5715;48.234;14.320;2023-12-20T13:46:41;6.30;99.90
11320;DHT22;5715;48.234;14.320;2023-12-20T13:49:28;6.30;99.90
11320;DHT22;5715;48.234;14.320;2023-12-20T13:52:16;6.30;99.90
11320;DHT22;5715;48.234;14.320;2023-12-20T13:55:04;6.30;99.90
11320;DHT22;5715;48.234;14.320;2023-12-20T13:57:55;6.30;99.90
11320;DHT22;5715;48.234;14.320;2023-12-20T14:00:43;6.30;99.90
11320;DHT22;5715;48.234;14.320;2023-12-20T14:03:31;6.30;99.90
11320;DHT22;5715;48.234;14.320;2023-12-20T14:06:19;6.30;99.90
11320;DHT22;5715;48.234;14.320;2023-12-20T14:09:06;6.30;99.90
11320;DHT22;5715;48.234;14.320;2023-12-20T14:11:54;6.30;99.90
11320;DHT22;5715;48.234;14.320;2023-12-20T14:14:42;6.30;99.90
11320;DHT22;5715;48.234;14.320;2023-12-20T14:17:32;6.30;99.90
11320;DHT22;5715;48.234;14.320;2023-12-20T14:20:20;6.40;99.90
11320;DHT22;5715;48.234;14.320;2023-12-20T14:23:08;6.40;99.90
11320;DHT22;5715;48.234;14.320;2023-12-20T14:25:59;6.40;99.90
11320;DHT22;5715;48.234;14.320;2023-12-20T14:28:47;6.40;99.90
11320;DHT22;5715;48.234;14.320;2023-12-20T14:31:35;6.30;99.90
11320;DHT22;5715;48.234;14.320;2023-12-20T14:34:24;6.30;99.90
11320;DHT22;5715;48.234;14.320;2023-12-20T14:37:12;6.30;99.90
11320;DHT22;5715;48.234;14.320;2023-12-20T14:40:00;6.30;99.90
11320;DHT22;5715;48.234;14.320;2023-12-20T14:42:48;6.20;99.90
11320;DHT22;5715;48.234;14.320;2023-12-20T14:45:36;6.10;99.90
11320;DHT22;5715;48.234;14.320;2023-12-20T14:48:24;5.90;99.90
11320;DHT22;5715;48.234;14.320;2023-12-20T14:51:15;5.80;99.90
11320;DHT22;5715;48.234;14.320;2023-12-20T14:54:02;5.70;99.90
11320;DHT22;5715;48.234;14.320;2023-12-20T14:56:50;5.60;99.90
11320;DHT22;5715;48.234;14.320;2023-12-20T14:59:37;5.50;99.90
11320;DHT22;5715;48.234;14.320;2023-12-20T15:02:25;5.30;99.90
11320;DHT22;5715;48.234;14.320;2023-12-20T15:05:13;5.20;99.90
11320;DHT22;5715;48.234;14.320;2023-12-20T15:08:01;5.10;99.90
11320;DHT22;5715;48.234;14.320;2023-12-20T15:10:49;5.00;99.90
11320;DHT22;5715;48.234;14.320;2023-12-20T15:13:37;4.90;99.90
11320;DHT22;5715;48.234;14.320;2023-12-20T15:16:25;4.90;99.90
11320;DHT22;5715;48.234;14.320;2023-12-20T15:19:13;4.80;99.90
11320;DHT22;5715;48.234;14.320;2023-12-20T15:22:01;4.80;99.90
11320;DHT22;5715;48.234;14.320;2023-12-20T15:24:49;4.80;99.90
11320;DHT22;5715;48.234;14.320;2023-12-20T15:27:39;4.90;99.90
11320;DHT22;5715;48.234;14.320;2023-12-20T15:30:26;4.80;99.90
11320;DHT22;5715;48.234;14.320;2023-12-20T15:33:14;4.80;99.90
11320;DHT22;5715;48.234;14.320;2023-12-20T15:36:02;4.70;99.90
11320;DHT22;5715;48.234;14.320;2023-12-20T15:38:50;4.70;99.90
11320;DHT22;5715;48.234;14.320;2023-12-20T15:41:38;4.60;99.90
11320;DHT22;5715;48.234;14.320;2023-12-20T15:44:25;4.60;99.90
11320;DHT22;5715;48.234;14.320;2023-12-20T15:47:13;4.60;99.90
11320;DHT22;5715;48.234;14.320;2023-12-20T15:50:00;4.60;99.90
11320;DHT22;5715;48.234;14.320;2023-12-20T15:52:48;4.50;99.90
11320;DHT22;5715;48.234;14.320;2023-12-20T15:55:36;4.60;99.90
11320;DHT22;5715;48.234;14.320;2023-12-20T15:58:23;4.60;99.90
11320;DHT22;5715;48.234;14.320;2023-12-20T16:01:11;4.60;99.90
11320;DHT22;5715;48.234;14.320;2023-12-20T16:03:59;4.70;99.90
11320;DHT22;5715;48.234;14.320;2023-12-20T16:06:46;4.70;99.90
11320;DHT22;5715;48.234;14.320;2023-12-20T16:09:34;4.60;99.90
11320;DHT22;5715;48.234;14.320;2023-12-20T16:12:22;4.70;99.90
11320;DHT22;5715;48.234;14.320;2023-12-20T16:15:09;4.60;99.90
11320;DHT22;5715;48.234;14.320;2023-12-20T16:17:57;4.60;99.90
11320;DHT22;5715;48.234;14.320;2023-12-20T16:20:45;4.50;99.90
11320;DHT22;5715;48.234;14.320;2023-12-20T16:23:33;4.50;99.90
11320;DHT22;5715;48.234;14.320;2023-12-20T16:26:21;4.40;99.90
11320;DHT22;5715;48.234;14.320;2023-12-20T16:29:08;4.30;99.90
11320;DHT22;5715;48.234;14.320;2023-12-20T16:31:56;4.30;99.90
11320;DHT22;5715;48.234;14.320;2023-12-20T16:34:44;4.30;99.90
11320;DHT22;5715;48.234;14.320;2023-12-20T16:37:32;4.30;99.90
11320;DHT22;5715;48.234;14.320;2023-12-20T16:40:25;4.40;99.90
11320;DHT22;5715;48.234;14.320;2023-12-20T16:43:12;4.40;99.90
11320;DHT22;5715;48.234;14.320;2023-12-20T16:46:00;4.50;99.90
11320;DHT22;5715;48.234;14.320;2023-12-20T16:48:51;4.40;99.90
11320;DHT22;5715;48.234;14.320;2023-12-20T16:51:39;4.40;99.90
11320;DHT22;5715;48.234;14.320;2023-12-20T16:54:26;4.30;99.90
11320;DHT22;5715;48.234;14.320;2023-12-20T16:57:16;4.20;99.90
11320;DHT22;5715;48.234;14.320;2023-12-20T17:00:05;4.10;99.90
11320;DHT22;5715;48.234;14.320;2023-12-20T17:02:54;4.00;99.90
11320;DHT22;5715;48.234;14.320;2023-12-20T17:05:41;4.00;99.90
11320;DHT22;5715;48.234;14.320;2023-12-20T17:08:29;3.90;99.90
11320;DHT22;5715;48.234;14.320;2023-12-20T17:11:17;3.90;99.90
11320;DHT22;5715;48.234;14.320;2023-12-20T17:14:04;3.80;99.90
11320;DHT22;5715;48.234;14.320;2023-12-20T17:16:52;3.80;99.90
11320;DHT22;5715;48.234;14.320;2023-12-20T17:19:40;3.70;99.90
11320;DHT22;5715;48.234;14.320;2023-12-20T17:22:28;3.60;99.90
11320;DHT22;5715;48.234;14.320;2023-12-20T17:25:16;3.50;99.90
11320;DHT22;5715;48.234;14.320;2023-12-20T17:28:05;3.40;99.90
11320;DHT22;5715;48.234;14.320;2023-12-20T17:30:53;3.40;99.90
11320;DHT22;5715;48.234;14.320;2023-12-20T17:33:41;3.30;99.90
11320;DHT22;5715;48.234;14.320;2023-12-20T17:36:28;3.40;99.90
11320;DHT22;5715;48.234;14.320;2023-12-20T17:39:16;3.40;99.90
11320;DHT22;5715;48.234;14.320;2023-12-20T17:42:04;3.40;99.90
11320;DHT22;5715;48.234;14.320;2023-12-20T17:44:51;3.40;99.90
11320;DHT22;5715;48.234;14.320;2023-12-20T17:47:40;3.50;99.90
11320;DHT22;5715;48.234;14.320;2023-12-20T17:50:28;3.60;99.90
11320;DHT22;5715;48.234;14.320;2023-12-20T17:53:16;3.70;99.90
11320;DHT22;5715;48.234;14.320;2023-12-20T17:56:04;3.80;99.90
11320;DHT22;5715;48.234;14.320;2023-12-20T17:58:52;3.80;99.90
11320;DHT22;5715;48.234;14.320;2023-12-20T18:01:40;3.90;99.90
11320;DHT22;5715;48.234;14.320;2023-12-20T18:04:28;4.00;99.90
11320;DHT22;5715;48.234;14.320;2023-12-20T18:07:15;3.90;99.90